sensor_id;sensor_type;location;lat;lon;timestamp;pressure;altitude;pressure_sealevel;temperature;humidity
50292;BME280;36190;54.980;73.388;2023-07-02T00:02:21;99964.66;;;19.08;51.86
50292;BME280;36190;54.980;73.388;2023-07-02T00:04:48;99962.56;;;19.10;51.67
50292;BME280;36190;54.980;73.388;2023-07-02T00:07:17;99970.41;;;19.12;51.78
50292;BME280;36190;54.980;73.388;2023-07-02T00:09:45;99962.06;;;19.13;51.83
50292;BME280;36190;54.980;73.388;2023-07-02T00:12:12;99973.38;;;19.10;51.75
50292;BME280;36190;54.980;73.388;2023-07-02T00:14:40;99965.13;;;19.05;51.90
50292;BME280;36190;54.980;73.388;2023-07-02T00:17:07;99973.72;;;19.02;51.98
50292;BME280;36190;54.980;73.388;2023-07-02T00:19:38;99979.56;;;18.99;51.88
50292;BME280;36190;54.980;73.388;2023-07-02T00:22:07;99983.91;;;19.00;51.90
50292;BME280;36190;54.980;73.388;2023-07-02T00:24:36;99976.28;;;18.96;51.96
50292;BME280;36190;54.980;73.388;2023-07-02T00:27:04;99966.38;;;18.90;51.82
50292;BME280;36190;54.980;73.388;2023-07-02T00:29:31;99974.03;;;18.93;51.86
50292;BME280;36190;54.980;73.388;2023-07-02T00:31:59;99984.03;;;18.93;51.80
50292;BME280;36190;54.980;73.388;2023-07-02T00:34:26;99979.44;;;18.93;51.75
50292;BME280;36190;54.980;73.388;2023-07-02T00:36:53;99973.22;;;18.93;51.54
50292;BME280;36190;54.980;73.388;2023-07-02T00:39:21;99968.63;;;18.93;51.54
50292;BME280;36190;54.980;73.388;2023-07-02T00:41:50;99972.72;;;18.96;51.54
50292;BME280;36190;54.980;73.388;2023-07-02T00:44:17;99972.66;;;19.03;51.28
50292;BME280;36190;54.980;73.388;2023-07-02T00:46:44;99968.78;;;19.10;51.25
50292;BME280;36190;54.980;73.388;2023-07-02T00:49:12;99971.13;;;19.19;51.24
50292;BME280;36190;54.980;73.388;2023-07-02T00:51:39;99972.06;;;19.24;50.93
50292;BME280;36190;54.980;73.388;2023-07-02T00:54:07;99978.88;;;19.27;50.86
50292;BME280;36190;54.980;73.388;2023-07-02T00:56:34;99966.56;;;19.19;50.83
50292;BME280;36190;54.980;73.388;2023-07-02T00:59:03;99967.97;;;19.22;50.75
50292;BME280;36190;54.980;73.388;2023-07-02T01:01:32;99967.97;;;19.22;50.82
50292;BME280;36190;54.980;73.388;2023-07-02T01:04:04;99969.84;;;19.21;50.65
50292;BME280;36190;54.980;73.388;2023-07-02T01:06:34;99961.50;;;19.23;50.65
50292;BME280;36190;54.980;73.388;2023-07-02T01:09:06;99958.16;;;19.33;50.42
50292;BME280;36190;54.980;73.388;2023-07-02T01:11:35;99963.81;;;19.43;50.12
50292;BME280;36190;54.980;73.388;2023-07-02T01:14:08;99966.00;;;19.58;49.91
50292;BME280;36190;54.980;73.388;2023-07-02T01:16:41;99966.00;;;19.70;49.56
50292;BME280;36190;54.980;73.388;2023-07-02T01:19:12;99967.03;;;19.81;49.15
50292;BME280;36190;54.980;73.388;2023-07-02T01:21:46;99969.34;;;19.89;48.93
50292;BME280;36190;54.980;73.388;2023-07-02T01:24:13;99966.06;;;19.99;48.67
50292;BME280;36190;54.980;73.388;2023-07-02T01:26:41;99974.59;;;20.08;48.31
50292;BME280;36190;54.980;73.388;2023-07-02T01:29:15;99970.19;;;20.19;48.13
50292;BME280;36190;54.980;73.388;2023-07-02T01:31:43;99967.94;;;20.28;47.91
50292;BME280;36190;54.980;73.388;2023-07-02T01:34:10;99962.69;;;20.38;47.77
50292;BME280;36190;54.980;73.388;2023-07-02T01:36:38;99975.00;;;20.46;47.69
50292;BME280;36190;54.980;73.388;2023-07-02T01:39:07;99962.94;;;20.54;47.38
50292;BME280;36190;54.980;73.388;2023-07-02T01:41:38;99979.03;;;20.60;47.17
50292;BME280;36190;54.980;73.388;2023-07-02T01:44:08;99960.41;;;20.64;47.06
50292;BME280;36190;54.980;73.388;2023-07-02T01:46:36;99964.28;;;20.68;46.87
50292;BME280;36190;54.980;73.388;2023-07-02T01:49:03;99966.25;;;20.73;46.81
50292;BME280;36190;54.980;73.388;2023-07-02T01:51:31;99966.88;;;20.80;46.80
50292;BME280;36190;54.980;73.388;2023-07-02T01:53:58;99962.97;;;20.88;46.61
50292;BME280;36190;54.980;73.388;2023-07-02T01:56:27;99971.53;;;20.97;46.43
50292;BME280;36190;54.980;73.388;2023-07-02T01:58:55;99972.75;;;21.06;46.24
50292;BME280;36190;54.980;73.388;2023-07-02T02:01:22;99967.47;;;21.16;46.40
50292;BME280;36190;54.980;73.388;2023-07-02T02:03:49;99964.88;;;21.27;46.17
50292;BME280;36190;54.980;73.388;2023-07-02T02:06:16;99968.81;;;21.36;46.19
50292;BME280;36190;54.980;73.388;2023-07-02T02:08:44;99972.72;;;21.46;45.81
50292;BME280;36190;54.980;73.388;2023-07-02T02:11:11;99982.09;;;21.55;45.71
50292;BME280;36190;54.980;73.388;2023-07-02T02:13:40;99975.63;;;21.61;45.50
50292;BME280;36190;54.980;73.388;2023-07-02T02:16:07;99972.44;;;21.64;45.35
50292;BME280;36190;54.980;73.388;2023-07-02T02:18:35;99971.91;;;21.67;45.27
50292;BME280;36190;54.980;73.388;2023-07-02T02:21:03;99969.78;;;21.69;45.43
50292;BME280;36190;54.980;73.388;2023-07-02T02:23:31;99968.16;;;21.68;45.43
50292;BME280;36190;54.980;73.388;2023-07-02T02:25:59;99965.75;;;21.72;45.39
50292;BME280;36190;54.980;73.388;2023-07-02T02:28:28;99960.16;;;21.79;45.58
50292;BME280;36190;54.980;73.388;2023-07-02T02:30:58;99965.69;;;21.89;45.71
50292;BME280;36190;54.980;73.388;2023-07-02T02:33:26;99960.88;;;21.96;45.52
50292;BME280;36190;54.980;73.388;2023-07-02T02:35:54;99965.28;;;22.03;45.63
50292;BME280;36190;54.980;73.388;2023-07-02T02:38:21;99959.09;;;22.07;45.57
50292;BME280;36190;54.980;73.388;2023-07-02T02:40:48;99956.97;;;22.15;45.64
50292;BME280;36190;54.980;73.388;2023-07-02T02:43:16;99954.09;;;22.26;45.58
50292;BME280;36190;54.980;73.388;2023-07-02T02:45:43;99951.75;;;22.35;45.63
50292;BME280;36190;54.980;73.388;2023-07-02T02:48:12;99958.09;;;22.46;45.68
50292;BME280;36190;54.980;73.388;2023-07-02T02:50:39;99957.66;;;22.55;45.67
50292;BME280;36190;54.980;73.388;2023-07-02T02:53:09;99958.28;;;22.67;45.66
50292;BME280;36190;54.980;73.388;2023-07-02T02:55:36;99958.69;;;22.81;45.69
50292;BME280;36190;54.980;73.388;2023-07-02T02:58:03;99961.72;;;22.90;45.35
50292;BME280;36190;54.980;73.388;2023-07-02T03:00:31;99959.59;;;22.97;45.22
50292;BME280;36190;54.980;73.388;2023-07-02T03:02:58;99950.94;;;23.05;45.00
50292;BME280;36190;54.980;73.388;2023-07-02T03:05:27;99950.44;;;23.14;45.01
50292;BME280;36190;54.980;73.388;2023-07-02T03:07:55;99946.97;;;23.24;44.76
50292;BME280;36190;54.980;73.388;2023-07-02T03:10:22;99951.13;;;23.31;44.66
50292;BME280;36190;54.980;73.388;2023-07-02T03:12:49;99950.09;;;23.43;44.45
50292;BME280;36190;54.980;73.388;2023-07-02T03:15:17;99944.13;;;23.51;44.24
50292;BME280;36190;54.980;73.388;2023-07-02T03:17:44;99952.88;;;23.58;44.19
50292;BME280;36190;54.980;73.388;2023-07-02T03:20:12;99950.72;;;23.66;43.68
50292;BME280;36190;54.980;73.388;2023-07-02T03:22:40;99946.66;;;23.73;43.51
50292;BME280;36190;54.980;73.388;2023-07-02T03:25:09;99948.03;;;23.76;43.48
50292;BME280;36190;54.980;73.388;2023-07-02T03:27:36;99950.78;;;23.86;43.31
50292;BME280;36190;54.980;73.388;2023-07-02T03:30:04;99953.25;;;23.93;43.06
50292;BME280;36190;54.980;73.388;2023-07-02T03:32:32;99950.28;;;24.00;42.90
50292;BME280;36190;54.980;73.388;2023-07-02T03:34:59;99957.97;;;24.08;42.49
50292;BME280;36190;54.980;73.388;2023-07-02T03:37:26;99944.88;;;24.10;42.89
50292;BME280;36190;54.980;73.388;2023-07-02T03:39:55;99952.78;;;24.27;42.93
50292;BME280;36190;54.980;73.388;2023-07-02T03:42:24;99949.25;;;24.37;42.85
50292;BME280;36190;54.980;73.388;2023-07-02T03:44:58;99939.75;;;24.45;42.70
50292;BME280;36190;54.980;73.388;2023-07-02T03:47:25;99949.81;;;24.55;42.55
50292;BME280;36190;54.980;73.388;2023-07-02T03:49:53;99946.00;;;24.61;42.29
50292;BME280;36190;54.980;73.388;2023-07-02T03:52:20;99941.09;;;24.68;42.08
50292;BME280;36190;54.980;73.388;2023-07-02T03:54:47;99949.28;;;24.74;42.18
50292;BME280;36190;54.980;73.388;2023-07-02T03:57:16;99940.81;;;24.80;42.03
50292;BME280;36190;54.980;73.388;2023-07-02T03:59:44;99933.44;;;24.86;42.25
50292;BME280;36190;54.980;73.388;2023-07-02T04:02:12;99929.09;;;24.90;42.19
50292;BME280;36190;54.980;73.388;2023-07-02T04:04:39;99921.44;;;24.92;42.02
50292;BME280;36190;54.980;73.388;2023-07-02T04:07:07;99924.16;;;24.97;42.13
50292;BME280;36190;54.980;73.388;2023-07-02T04:09:34;99930.13;;;25.05;42.04
50292;BME280;36190;54.980;73.388;2023-07-02T04:12:01;99937.22;;;25.16;42.24
50292;BME280;36190;54.980;73.388;2023-07-02T04:14:30;99934.16;;;25.28;42.07
50292;BME280;36190;54.980;73.388;2023-07-02T04:16:58;99933.56;;;25.41;42.25
50292;BME280;36190;54.980;73.388;2023-07-02T04:19:25;99932.72;;;25.51;41.64
50292;BME280;36190;54.980;73.388;2023-07-02T04:21:52;99930.25;;;25.60;41.38
50292;BME280;36190;54.980;73.388;2023-07-02T04:24:20;99926.38;;;25.66;41.58
50292;BME280;36190;54.980;73.388;2023-07-02T04:26:47;99932.66;;;25.72;41.40
50292;BME280;36190;54.980;73.388;2023-07-02T04:29:14;99929.31;;;25.80;41.17
50292;BME280;36190;54.980;73.388;2023-07-02T04:31:43;99929.56;;;25.84;41.20
50292;BME280;36190;54.980;73.388;2023-07-02T04:34:10;99926.78;;;25.89;41.04
50292;BME280;36190;54.980;73.388;2023-07-02T04:36:38;99927.31;;;25.97;40.97
50292;BME280;36190;54.980;73.388;2023-07-02T04:39:05;99934.09;;;26.04;41.21
50292;BME280;36190;54.980;73.388;2023-07-02T04:41:32;99932.91;;;26.16;41.01
50292;BME280;36190;54.980;73.388;2023-07-02T04:44:00;99924.13;;;26.24;41.00
50292;BME280;36190;54.980;73.388;2023-07-02T04:46:27;99921.31;;;26.34;40.57
50292;BME280;36190;54.980;73.388;2023-07-02T04:48:56;99930.00;;;26.42;39.27
50292;BME280;36190;54.980;73.388;2023-07-02T04:51:24;99917.09;;;26.47;39.03
50292;BME280;36190;54.980;73.388;2023-07-02T04:53:51;99922.78;;;26.56;38.27
50292;BME280;36190;54.980;73.388;2023-07-02T04:56:18;99927.09;;;26.62;37.93
50292;BME280;36190;54.980;73.388;2023-07-02T04:58:46;99911.44;;;26.68;37.38
50292;BME280;36190;54.980;73.388;2023-07-02T05:01:13;99923.16;;;26.74;36.85
50292;BME280;36190;54.980;73.388;2023-07-02T05:03:40;99912.44;;;26.77;36.42
50292;BME280;36190;54.980;73.388;2023-07-02T05:06:09;99907.47;;;26.85;36.20
50292;BME280;36190;54.980;73.388;2023-07-02T05:08:36;99904.13;;;26.93;36.25
50292;BME280;36190;54.980;73.388;2023-07-02T05:11:04;99900.97;;;27.05;35.94
50292;BME280;36190;54.980;73.388;2023-07-02T05:13:31;99912.69;;;27.11;36.03
50292;BME280;36190;54.980;73.388;2023-07-02T05:15:58;99904.69;;;27.14;36.08
50292;BME280;36190;54.980;73.388;2023-07-02T05:18:25;99907.06;;;27.21;35.70
50292;BME280;36190;54.980;73.388;2023-07-02T05:20:53;99901.53;;;27.26;35.89
50292;BME280;36190;54.980;73.388;2023-07-02T05:23:22;99904.75;;;27.34;35.65
50292;BME280;36190;54.980;73.388;2023-07-02T05:25:49;99908.50;;;27.38;35.87
50292;BME280;36190;54.980;73.388;2023-07-02T05:28:17;99909.81;;;27.45;35.61
50292;BME280;36190;54.980;73.388;2023-07-02T05:30:44;99906.94;;;27.56;35.69
50292;BME280;36190;54.980;73.388;2023-07-02T05:33:11;99910.44;;;27.62;35.15
50292;BME280;36190;54.980;73.388;2023-07-02T05:35:39;99908.13;;;27.69;35.39
50292;BME280;36190;54.980;73.388;2023-07-02T05:38:06;99900.09;;;27.78;35.27
50292;BME280;36190;54.980;73.388;2023-07-02T05:40:35;99904.91;;;27.86;35.00
50292;BME280;36190;54.980;73.388;2023-07-02T05:43:02;99908.66;;;27.90;34.98
50292;BME280;36190;54.980;73.388;2023-07-02T05:45:29;99902.00;;;27.96;34.78
50292;BME280;36190;54.980;73.388;2023-07-02T05:47:57;99907.91;;;28.04;34.48
50292;BME280;36190;54.980;73.388;2023-07-02T05:50:25;99903.66;;;28.11;34.08
50292;BME280;36190;54.980;73.388;2023-07-02T05:52:52;99902.47;;;28.18;33.95
50292;BME280;36190;54.980;73.388;2023-07-02T05:55:20;99903.78;;;28.25;33.74
50292;BME280;36190;54.980;73.388;2023-07-02T05:57:49;99897.06;;;28.32;33.67
50292;BME280;36190;54.980;73.388;2023-07-02T06:00:16;99893.97;;;28.38;33.97
50292;BME280;36190;54.980;73.388;2023-07-02T06:02:46;99896.31;;;28.45;33.18
50292;BME280;36190;54.980;73.388;2023-07-02T06:05:13;99882.50;;;28.50;33.21
50292;BME280;36190;54.980;73.388;2023-07-02T06:07:41;99879.44;;;28.52;33.26
50292;BME280;36190;54.980;73.388;2023-07-02T06:10:09;99875.78;;;28.57;33.19
50292;BME280;36190;54.980;73.388;2023-07-02T06:12:36;99878.94;;;28.64;33.03
50292;BME280;36190;54.980;73.388;2023-07-02T06:15:06;99871.75;;;28.68;32.46
50292;BME280;36190;54.980;73.388;2023-07-02T06:17:34;99873.59;;;28.73;32.70
50292;BME280;36190;54.980;73.388;2023-07-02T06:20:02;99866.47;;;28.72;32.82
50292;BME280;36190;54.980;73.388;2023-07-02T06:22:30;99870.22;;;28.76;32.46
50292;BME280;36190;54.980;73.388;2023-07-02T06:24:57;99868.31;;;28.76;32.66
50292;BME280;36190;54.980;73.388;2023-07-02T06:27:25;99857.31;;;28.76;32.80
50292;BME280;36190;54.980;73.388;2023-07-02T06:29:52;99859.94;;;28.81;32.41
50292;BME280;36190;54.980;73.388;2023-07-02T06:32:21;99859.38;;;28.85;32.48
50292;BME280;36190;54.980;73.388;2023-07-02T06:34:48;99866.09;;;28.92;32.42
50292;BME280;36190;54.980;73.388;2023-07-02T06:37:15;99860.41;;;29.03;32.66
50292;BME280;36190;54.980;73.388;2023-07-02T06:39:43;99860.50;;;29.12;32.39
50292;BME280;36190;54.980;73.388;2023-07-02T06:42:10;99860.41;;;29.17;32.49
50292;BME280;36190;54.980;73.388;2023-07-02T06:44:37;99870.97;;;29.23;32.13
50292;BME280;36190;54.980;73.388;2023-07-02T06:47:05;99858.25;;;29.28;32.07
50292;BME280;36190;54.980;73.388;2023-07-02T06:49:34;99862.00;;;29.32;32.27
50292;BME280;36190;54.980;73.388;2023-07-02T06:52:01;99860.56;;;29.34;31.92
50292;BME280;36190;54.980;73.388;2023-07-02T06:54:28;99848.66;;;29.39;32.05
50292;BME280;36190;54.980;73.388;2023-07-02T06:56:56;99860.84;;;29.47;31.64
50292;BME280;36190;54.980;73.388;2023-07-02T06:59:23;99854.13;;;29.53;31.76
50292;BME280;36190;54.980;73.388;2023-07-02T07:01:51;99861.16;;;29.59;31.37
50292;BME280;36190;54.980;73.388;2023-07-02T07:04:18;99860.50;;;29.62;31.67
50292;BME280;36190;54.980;73.388;2023-07-02T07:06:47;99863.16;;;29.68;31.31
50292;BME280;36190;54.980;73.388;2023-07-02T07:09:14;99850.28;;;29.77;31.36
50292;BME280;36190;54.980;73.388;2023-07-02T07:11:43;99851.69;;;29.88;31.00
50292;BME280;36190;54.980;73.388;2023-07-02T07:14:10;99847.25;;;30.01;30.90
50292;BME280;36190;54.980;73.388;2023-07-02T07:16:38;99847.50;;;30.14;30.25
50292;BME280;36190;54.980;73.388;2023-07-02T07:19:05;99840.13;;;30.23;30.12
50292;BME280;36190;54.980;73.388;2023-07-02T07:21:33;99846.03;;;30.39;30.28
50292;BME280;36190;54.980;73.388;2023-07-02T07:24:02;99840.75;;;30.52;30.01
50292;BME280;36190;54.980;73.388;2023-07-02T07:26:29;99842.09;;;30.63;29.80
50292;BME280;36190;54.980;73.388;2023-07-02T07:28:57;99844.13;;;30.71;29.72
50292;BME280;36190;54.980;73.388;2023-07-02T07:31:24;99854.69;;;30.87;29.32
50292;BME280;36190;54.980;73.388;2023-07-02T07:33:51;99840.75;;;30.92;29.41
50292;BME280;36190;54.980;73.388;2023-07-02T07:36:19;99842.41;;;31.02;28.82
50292;BME280;36190;54.980;73.388;2023-07-02T07:38:46;99847.44;;;31.09;29.10
50292;BME280;36190;54.980;73.388;2023-07-02T07:41:15;99846.16;;;31.15;28.63
50292;BME280;36190;54.980;73.388;2023-07-02T07:43:42;99843.66;;;31.27;28.51
50292;BME280;36190;54.980;73.388;2023-07-02T07:46:10;99844.78;;;31.35;28.29
50292;BME280;36190;54.980;73.388;2023-07-02T07:48:37;99849.34;;;31.49;28.01
50292;BME280;36190;54.980;73.388;2023-07-02T07:51:04;99845.09;;;31.60;27.72
50292;BME280;36190;54.980;73.388;2023-07-02T07:53:32;99841.69;;;31.72;27.55
50292;BME280;36190;54.980;73.388;2023-07-02T07:55:59;99840.25;;;31.92;27.27
50292;BME280;36190;54.980;73.388;2023-07-02T07:58:28;99840.84;;;32.16;26.90
50292;BME280;36190;54.980;73.388;2023-07-02T08:00:55;99832.53;;;32.33;26.72
50292;BME280;36190;54.980;73.388;2023-07-02T08:03:22;99838.03;;;32.51;26.80
50292;BME280;36190;54.980;73.388;2023-07-02T08:05:50;99835.38;;;32.63;26.45
50292;BME280;36190;54.980;73.388;2023-07-02T08:08:17;99836.47;;;32.71;26.17
50292;BME280;36190;54.980;73.388;2023-07-02T08:10:44;99844.56;;;32.76;26.06
50292;BME280;36190;54.980;73.388;2023-07-02T08:13:12;99833.31;;;32.90;25.97
50292;BME280;36190;54.980;73.388;2023-07-02T08:15:41;99829.09;;;33.14;25.72
50292;BME280;36190;54.980;73.388;2023-07-02T08:18:08;99831.91;;;33.36;25.65
50292;BME280;36190;54.980;73.388;2023-07-02T08:20:37;99856.88;;;33.48;25.24
50292;BME280;36190;54.980;73.388;2023-07-02T08:23:04;99831.38;;;33.64;25.10
50292;BME280;36190;54.980;73.388;2023-07-02T08:25:32;99845.63;;;33.87;24.87
50292;BME280;36190;54.980;73.388;2023-07-02T08:27:59;99842.50;;;34.10;24.55
50292;BME280;36190;54.980;73.388;2023-07-02T08:30:26;99843.00;;;34.24;24.28
50292;BME280;36190;54.980;73.388;2023-07-02T08:32:55;99830.56;;;34.43;24.12
50292;BME280;36190;54.980;73.388;2023-07-02T08:35:22;99833.38;;;34.80;23.87
50292;BME280;36190;54.980;73.388;2023-07-02T08:37:50;99834.66;;;35.08;23.75
50292;BME280;36190;54.980;73.388;2023-07-02T08:40:18;99839.38;;;35.20;23.18
50292;BME280;36190;54.980;73.388;2023-07-02T08:42:46;99827.13;;;35.21;23.12
50292;BME280;36190;54.980;73.388;2023-07-02T08:45:14;99840.00;;;35.42;22.90
50292;BME280;36190;54.980;73.388;2023-07-02T08:47:43;99835.34;;;35.58;22.69
50292;BME280;36190;54.980;73.388;2023-07-02T08:50:13;99824.31;;;35.74;22.36
50292;BME280;36190;54.980;73.388;2023-07-02T08:52:40;99818.09;;;35.93;22.27
50292;BME280;36190;54.980;73.388;2023-07-02T08:55:09;99823.72;;;36.26;22.05
50292;BME280;36190;54.980;73.388;2023-07-02T08:57:36;99820.16;;;36.57;21.65
50292;BME280;36190;54.980;73.388;2023-07-02T09:00:09;99819.31;;;36.73;21.43
50292;BME280;36190;54.980;73.388;2023-07-02T09:02:36;99830.78;;;36.87;22.02
50292;BME280;36190;54.980;73.388;2023-07-02T09:05:04;99826.53;;;36.94;20.81
50292;BME280;36190;54.980;73.388;2023-07-02T09:07:43;99807.47;;;36.92;20.79
50292;BME280;36190;54.980;73.388;2023-07-02T09:10:11;99806.13;;;36.86;21.14
50292;BME280;36190;54.980;73.388;2023-07-02T09:12:39;99808.63;;;36.91;20.44
50292;BME280;36190;54.980;73.388;2023-07-02T09:15:06;99810.56;;;37.07;20.47
50292;BME280;36190;54.980;73.388;2023-07-02T09:17:35;99807.66;;;37.19;20.28
50292;BME280;36190;54.980;73.388;2023-07-02T09:20:04;99812.47;;;37.22;19.98
50292;BME280;36190;54.980;73.388;2023-07-02T09:22:35;99806.78;;;37.35;20.50
50292;BME280;36190;54.980;73.388;2023-07-02T09:25:04;99805.16;;;37.53;19.88
50292;BME280;36190;54.980;73.388;2023-07-02T09:27:35;99810.75;;;37.73;19.88
50292;BME280;36190;54.980;73.388;2023-07-02T09:30:09;99816.06;;;37.82;19.42
50292;BME280;36190;54.980;73.388;2023-07-02T09:32:38;99809.97;;;37.96;19.77
50292;BME280;36190;54.980;73.388;2023-07-02T09:35:06;99806.47;;;38.22;19.05
50292;BME280;36190;54.980;73.388;2023-07-02T09:37:35;99803.81;;;38.53;18.96
50292;BME280;36190;54.980;73.388;2023-07-02T09:40:04;99807.03;;;38.82;18.89
50292;BME280;36190;54.980;73.388;2023-07-02T09:42:33;99805.41;;;39.08;18.46
50292;BME280;36190;54.980;73.388;2023-07-02T09:45:02;99792.69;;;39.41;18.46
50292;BME280;36190;54.980;73.388;2023-07-02T09:47:29;99806.13;;;39.66;17.75
50292;BME280;36190;54.980;73.388;2023-07-02T09:50:02;99799.53;;;39.82;17.80
50292;BME280;36190;54.980;73.388;2023-07-02T09:52:31;99802.91;;;39.98;17.91
50292;BME280;36190;54.980;73.388;2023-07-02T09:55:01;99802.63;;;40.11;17.90
50292;BME280;36190;54.980;73.388;2023-07-02T09:57:29;99805.13;;;40.27;17.35
50292;BME280;36190;54.980;73.388;2023-07-02T09:59:58;99801.31;;;40.42;17.50
50292;BME280;36190;54.980;73.388;2023-07-02T10:02:26;99796.56;;;40.50;16.98
50292;BME280;36190;54.980;73.388;2023-07-02T10:04:54;99799.44;;;40.65;17.11
50292;BME280;36190;54.980;73.388;2023-07-02T10:07:29;99789.66;;;40.93;17.15
50292;BME280;36190;54.980;73.388;2023-07-02T10:09:58;99785.44;;;41.28;16.93
50292;BME280;36190;54.980;73.388;2023-07-02T10:12:28;99784.28;;;41.44;16.58
50292;BME280;36190;54.980;73.388;2023-07-02T10:14:57;99787.53;;;41.64;16.65
50292;BME280;36190;54.980;73.388;2023-07-02T10:17:26;99779.59;;;41.70;16.38
50292;BME280;36190;54.980;73.388;2023-07-02T10:19:57;99789.97;;;41.76;16.27
50292;BME280;36190;54.980;73.388;2023-07-02T10:22:24;99796.00;;;41.75;16.16
50292;BME280;36190;54.980;73.388;2023-07-02T10:24:53;99788.41;;;41.86;16.13
50292;BME280;36190;54.980;73.388;2023-07-02T10:27:35;99787.25;;;42.24;15.65
50292;BME280;36190;54.980;73.388;2023-07-02T10:30:04;99782.00;;;42.55;15.50
50292;BME280;36190;54.980;73.388;2023-07-02T10:32:32;99789.16;;;42.81;15.45
50292;BME280;36190;54.980;73.388;2023-07-02T10:35:00;99783.00;;;43.26;15.40
50292;BME280;36190;54.980;73.388;2023-07-02T10:37:35;99784.91;;;43.51;15.08
50292;BME280;36190;54.980;73.388;2023-07-02T10:40:04;99786.41;;;43.67;14.86
50292;BME280;36190;54.980;73.388;2023-07-02T10:42:44;99784.44;;;44.17;14.88
50292;BME280;36190;54.980;73.388;2023-07-02T10:45:12;99785.00;;;44.46;14.74
50292;BME280;36190;54.980;73.388;2023-07-02T10:47:39;99779.38;;;44.46;14.38
50292;BME280;36190;54.980;73.388;2023-07-02T10:50:15;99787.38;;;44.51;14.18
50292;BME280;36190;54.980;73.388;2023-07-02T10:52:42;99790.56;;;44.54;14.55
50292;BME280;36190;54.980;73.388;2023-07-02T10:55:10;99783.84;;;44.82;14.18
50292;BME280;36190;54.980;73.388;2023-07-02T10:57:40;99784.34;;;45.08;13.89
50292;BME280;36190;54.980;73.388;2023-07-02T11:00:08;99782.81;;;45.35;13.76
50292;BME280;36190;54.980;73.388;2023-07-02T11:02:36;99779.09;;;45.41;13.50
50292;BME280;36190;54.980;73.388;2023-07-02T11:05:05;99784.63;;;45.49;13.52
50292;BME280;36190;54.980;73.388;2023-07-02T11:07:34;99779.91;;;45.69;13.77
50292;BME280;36190;54.980;73.388;2023-07-02T11:10:02;99785.38;;;46.08;13.49
50292;BME280;36190;54.980;73.388;2023-07-02T11:12:31;99779.34;;;46.53;12.83
50292;BME280;36190;54.980;73.388;2023-07-02T11:15:08;99772.00;;;47.00;12.59
50292;BME280;36190;54.980;73.388;2023-07-02T11:17:36;99775.88;;;47.27;12.33
50292;BME280;36190;54.980;73.388;2023-07-02T11:20:04;99776.91;;;47.53;12.42
50292;BME280;36190;54.980;73.388;2023-07-02T11:22:32;99779.47;;;47.64;12.30
50292;BME280;36190;54.980;73.388;2023-07-02T11:25:12;99770.34;;;47.76;12.30
50292;BME280;36190;54.980;73.388;2023-07-02T11:27:40;99773.06;;;47.80;12.24
50292;BME280;36190;54.980;73.388;2023-07-02T11:30:10;99769.78;;;48.15;12.30
50292;BME280;36190;54.980;73.388;2023-07-02T11:32:52;99768.34;;;48.69;11.94
50292;BME280;36190;54.980;73.388;2023-07-02T11:35:21;99769.34;;;48.63;11.49
50292;BME280;36190;54.980;73.388;2023-07-02T11:37:49;99770.94;;;48.77;11.43
50292;BME280;36190;54.980;73.388;2023-07-02T11:40:17;99770.06;;;49.22;11.18
50292;BME280;36190;54.980;73.388;2023-07-02T11:42:45;99774.47;;;49.49;11.22
50292;BME280;36190;54.980;73.388;2023-07-02T11:45:14;99765.09;;;49.26;11.30
50292;BME280;36190;54.980;73.388;2023-07-02T11:47:41;99766.13;;;48.31;11.36
50292;BME280;36190;54.980;73.388;2023-07-02T11:50:09;99773.09;;;46.86;11.92
50292;BME280;36190;54.980;73.388;2023-07-02T11:52:37;99764.47;;;45.54;12.71
50292;BME280;36190;54.980;73.388;2023-07-02T11:55:05;99764.47;;;44.53;13.52
50292;BME280;36190;54.980;73.388;2023-07-02T11:57:32;99753.50;;;43.71;14.12
50292;BME280;36190;54.980;73.388;2023-07-02T11:59:59;99762.53;;;43.37;14.27
50292;BME280;36190;54.980;73.388;2023-07-02T12:02:28;99751.53;;;43.64;14.30
50292;BME280;36190;54.980;73.388;2023-07-02T12:04:56;99762.66;;;44.35;13.91
50292;BME280;36190;54.980;73.388;2023-07-02T12:07:24;99761.53;;;45.02;13.49
50292;BME280;36190;54.980;73.388;2023-07-02T12:09:51;99762.66;;;45.67;12.97
50292;BME280;36190;54.980;73.388;2023-07-02T12:12:19;99760.00;;;45.84;12.82
50292;BME280;36190;54.980;73.388;2023-07-02T12:14:46;99754.69;;;45.62;13.27
50292;BME280;36190;54.980;73.388;2023-07-02T12:17:13;99759.16;;;45.28;13.24
50292;BME280;36190;54.980;73.388;2023-07-02T12:19:42;99757.00;;;44.74;13.56
50292;BME280;36190;54.980;73.388;2023-07-02T12:22:09;99763.63;;;44.10;14.10
50292;BME280;36190;54.980;73.388;2023-07-02T12:24:37;99755.72;;;43.34;14.42
50292;BME280;36190;54.980;73.388;2023-07-02T12:27:05;99764.38;;;42.76;14.72
50292;BME280;36190;54.980;73.388;2023-07-02T12:29:32;99757.59;;;42.37;14.91
50292;BME280;36190;54.980;73.388;2023-07-02T12:32:00;99763.19;;;42.59;14.96
50292;BME280;36190;54.980;73.388;2023-07-02T12:34:27;99762.56;;;43.29;14.59
50292;BME280;36190;54.980;73.388;2023-07-02T12:36:56;99756.59;;;44.37;14.09
50292;BME280;36190;54.980;73.388;2023-07-02T12:39:23;99761.06;;;45.66;13.02
50292;BME280;36190;54.980;73.388;2023-07-02T12:41:51;99755.50;;;46.78;12.92
50292;BME280;36190;54.980;73.388;2023-07-02T12:44:18;99767.44;;;47.80;11.95
50292;BME280;36190;54.980;73.388;2023-07-02T12:46:46;99763.66;;;48.63;11.86
50292;BME280;36190;54.980;73.388;2023-07-02T12:49:14;99768.56;;;49.18;11.11
50292;BME280;36190;54.980;73.388;2023-07-02T12:51:41;99765.75;;;49.31;11.41
50292;BME280;36190;54.980;73.388;2023-07-02T12:54:10;99769.50;;;49.40;10.73
50292;BME280;36190;54.980;73.388;2023-07-02T12:56:37;99768.47;;;49.47;10.71